Date,TemperatureHighF,TemperatureAvgF,TemperatureLowF,DewpointHighF,DewpointAvgF,DewpointLowF,HumidityHigh,HumidityAvg,HumidityLow,PressureMaxIn,PressureMinIn,WindSpeedMaxMPH,WindSpeedAvgMPH,GustSpeedMaxMPH,PrecipitationSumIn
2013-2-1,37,29,20,30,15,7,89,58,36,30.72,30.40,13,3,20,0.00
2013-2-2,32,27,20,31,19,0,97,73,34,30.73,30.50,6,0,7,0.00
2013-2-3,44,34,29,32,28,24,97,82,60,30.50,30.36,12,1,16,0.41
2013-2-4,47,35,26,31,24,20,83,67,43,30.51,30.37,5,1,6,0.07
2013-2-5,55,42,38,43,33,22,92,71,48,30.38,30.30,2,0,3,0.02
2013-2-6,59,47,38,41,32,21,96,62,28,30.53,30.37,9,2,10,0.00
2013-2-7,52,47,44,44,37,23,94,70,38,30.49,30.23,7,1,13,0.16
2013-2-8,51,42,32,47,39,28,97,89,61,30.47,30.21,6,0,12,0.05
2013-2-9,62,42,27,35,26,16,87,60,18,30.66,30.44,9,1,11,0.00
2013-2-10,51,45,42,46,31,22,96,61,36,30.64,30.41,13,2,27,0.95
2013-2-11,52,48,42,51,46,39,98,92,80,30.44,30.35,7,1,9,0.38
2013-2-12,50,42,36,40,36,32,93,81,60,30.42,30.18,10,1,15,0.14
2013-2-13,46,41,32,43,38,30,93,89,82,30.26,30.03,14,3,18,0.04
2013-2-14,53,38,28,34,30,27,96,75,41,30.42,30.26,9,1,10,0.00
2013-2-15,54,42,34,39,33,29,94,73,42,30.45,30.30,10,2,13,0.02
2013-2-16,34,28,20,33,23,11,95,82,62,30.44,30.25,6,1,13,0.00
2013-2-17,38,27,18,17,12,7,69,54,38,30.67,30.45,9,2,16,0.00
2013-2-18,56,40,28,29,20,11,57,46,30,30.73,30.47,14,3,24,0.01
2013-2-19,50,40,32,43,28,13,97,67,35,30.48,30.29,16,3,29,0.23
2013-2-20,45,33,26,17,12,6,59,44,22,30.52,30.44,7,1,9,0.00
2013-2-21,66,43,27,38,19,-1,91,43,17,30.55,30.36,7,1,11,0.61
2013-2-22,50,42,37,47,40,35,97,91,80,30.50,30.34,18,1,23,0.51
2013-2-23,54,48,43,52,47,39,98,95,79,30.36,30.13,4,1,7,0.40
2013-2-24,59,45,37,42,34,23,96,70,31,30.34,30.19,9,2,10,0.00
2013-2-25,52,44,38,40,30,20,91,58,43,30.36,30.18,9,1,22,0.02
2013-2-26,48,43,36,43,40,32,92,88,80,30.16,29.85,17,5,33,0.70
2013-2-27,52,39,33,38,33,29,94,79,50,30.19,30.03,16,3,18,0.04
2013-2-28,36,31,29,32,26,24,88,81,76,30.32,30.13,11,2,15,0.00